createdAt,value
2022-10-16T00:03:00.801Z,1.30
2022-10-16T00:08:03.805Z,1.60
2022-10-16T00:13:05.587Z,1.50
2022-10-16T00:18:07.004Z,1.63
2022-10-16T00:23:09.199Z,1.88
2022-10-16T00:28:10.575Z,1.60
2022-10-16T00:33:13.694Z,1.60
2022-10-16T00:38:15.048Z,2.10
2022-10-16T00:43:34.950Z,1.75
2022-10-16T00:48:36.462Z,1.67
2022-10-16T00:53:37.840Z,1.65
2022-10-16T00:58:39.274Z,1.92
2022-10-16T01:03:40.686Z,1.80
2022-10-16T01:08:49.026Z,2.00
2022-10-16T01:13:54.481Z,2.03
2022-10-16T01:18:58.425Z,2.25
2022-10-16T01:23:59.719Z,2.15
2022-10-16T01:29:14.006Z,1.65
2022-10-16T01:34:34.257Z,2.05
2022-10-16T01:39:37.108Z,2.25
2022-10-16T01:44:39.870Z,2.00
2022-10-16T01:49:41.692Z,2.05
2022-10-16T01:54:44.525Z,2.15
2022-10-16T01:59:47.922Z,3.15
2022-10-16T02:05:18.511Z,2.33
2022-10-16T02:10:19.956Z,2.10
2022-10-16T02:15:21.343Z,1.88
2022-10-16T02:20:26.142Z,1.80
2022-10-16T02:25:27.486Z,2.17
2022-10-16T02:30:28.782Z,1.85
2022-10-16T02:35:31.004Z,1.77
2022-10-16T02:40:32.475Z,2.10
2022-10-16T02:45:34.191Z,1.50
2022-10-16T02:50:35.512Z,1.58
2022-10-16T02:55:36.884Z,1.60
2022-10-16T03:00:38.381Z,1.55
2022-10-16T03:05:39.797Z,1.60
2022-10-16T03:10:41.142Z,1.92
2022-10-16T03:15:42.498Z,1.80
2022-10-16T03:20:44.141Z,1.95
2022-10-16T03:25:47.291Z,1.70
2022-10-16T03:30:49.802Z,1.58
2022-10-16T03:35:54.825Z,1.73
2022-10-16T03:40:56.233Z,2.08
2022-10-16T03:45:57.578Z,1.60
2022-10-16T03:50:59.235Z,2.20
2022-10-16T03:56:01.135Z,2.03
2022-10-16T04:01:02.698Z,2.10
2022-10-16T04:06:04.129Z,2.00
2022-10-16T04:11:05.733Z,2.15
2022-10-16T04:16:07.136Z,2.08
2022-10-16T04:21:08.507Z,2.30
2022-10-16T04:26:11.279Z,2.22
2022-10-16T04:31:12.583Z,2.40
2022-10-16T04:36:13.969Z,2.28
2022-10-16T04:41:15.383Z,2.95
2022-10-16T04:46:16.777Z,2.05
2022-10-16T04:51:19.641Z,2.47
2022-10-16T04:56:21.819Z,2.70
2022-10-16T05:01:23.161Z,2.72
2022-10-16T05:06:24.486Z,2.47
2022-10-16T05:11:25.825Z,2.50
2022-10-16T05:16:27.327Z,2.47
2022-10-16T05:21:28.667Z,2.92
2022-10-16T05:26:29.996Z,2.60
2022-10-16T05:31:31.393Z,2.20
2022-10-16T05:36:32.788Z,2.83
2022-10-16T05:41:34.181Z,2.25
2022-10-16T05:46:35.581Z,2.33
2022-10-16T05:51:36.947Z,2.85
2022-10-16T05:56:38.385Z,2.05
2022-10-16T06:01:39.813Z,2.55
2022-10-16T06:06:41.432Z,2.05
2022-10-16T06:11:42.887Z,2.00
2022-10-16T06:16:44.378Z,1.80
2022-10-16T06:21:45.771Z,2.17
2022-10-16T06:26:47.201Z,2.00
2022-10-16T06:31:48.621Z,2.10
2022-10-16T06:36:50.087Z,2.03
2022-10-16T06:41:51.638Z,2.55
2022-10-16T06:46:53.244Z,1.90
2022-10-16T06:51:54.564Z,2.00
2022-10-16T06:56:56.096Z,2.20
2022-10-16T07:01:57.459Z,1.80
2022-10-16T07:07:01.151Z,2.20
2022-10-16T07:12:03.143Z,1.83
2022-10-16T07:17:04.454Z,2.13
2022-10-16T07:22:05.950Z,4.97
2022-10-16T07:27:07.795Z,3.10
2022-10-16T07:32:09.243Z,2.28
2022-10-16T07:37:10.636Z,2.10
2022-10-16T07:42:12.072Z,2.38
2022-10-16T07:47:13.446Z,3.90
2022-10-16T07:52:14.868Z,2.47
2022-10-16T07:57:20.369Z,2.40
2022-10-16T08:02:21.749Z,2.53
2022-10-16T08:07:23.183Z,2.00
2022-10-16T08:12:24.699Z,1.90
2022-10-16T08:17:26.249Z,2.20
2022-10-16T08:22:27.813Z,3.75
2022-10-16T08:27:32.797Z,2.50
2022-10-16T08:32:34.264Z,2.88
2022-10-16T08:37:35.734Z,1.83
2022-10-16T08:42:42.820Z,2.17
2022-10-16T08:48:02.337Z,1.80
2022-10-16T08:53:04.834Z,2.00
2022-10-16T08:58:17.024Z,2.47
2022-10-16T09:03:24.763Z,2.15
2022-10-16T09:08:31.092Z,2.25
2022-10-16T09:13:38.406Z,2.35
2022-10-16T09:18:42.633Z,2.53
2022-10-16T09:23:44.547Z,2.03
2022-10-16T09:28:46.125Z,2.75
2022-10-16T09:33:51.256Z,2.92
2022-10-16T09:39:04.297Z,2.20
2022-10-16T09:44:07.799Z,2.65
2022-10-16T09:49:25.773Z,3.28
2022-10-16T09:54:27.131Z,2.05
2022-10-16T09:59:31.631Z,2.20
2022-10-16T10:04:45.572Z,2.95
2022-10-16T10:09:47.626Z,3.13
2022-10-16T10:14:50.527Z,2.28
2022-10-16T10:19:53.473Z,2.53
2022-10-16T10:25:01.450Z,2.10
2022-10-16T10:30:02.766Z,1.90
2022-10-16T10:35:14.177Z,2.33
2022-10-16T10:40:29.156Z,2.30
2022-10-16T10:45:42.600Z,2.45
2022-10-16T10:50:50.726Z,2.17
2022-10-16T10:55:55.331Z,1.70
2022-10-16T11:01:16.103Z,2.00
2022-10-16T11:06:18.950Z,1.63
2022-10-16T11:11:29.174Z,2.28
2022-10-16T11:16:32.908Z,1.92
2022-10-16T11:21:39.041Z,2.08
2022-10-16T11:26:42.073Z,1.80
2022-10-16T11:31:50.188Z,1.75
2022-10-16T11:36:54.312Z,2.67
2022-10-16T11:42:00.060Z,1.73
2022-10-16T11:47:53.923Z,2.05
2022-10-16T11:52:41.868Z,2.10
2022-10-16T11:57:45.871Z,2.70
2022-10-16T12:03:06.648Z,2.72
2022-10-16T12:08:11.513Z,2.60
2022-10-16T12:13:31.547Z,2.25
2022-10-16T12:18:32.960Z,2.30
2022-10-16T12:23:37.903Z,2.10
2022-10-16T12:28:40.237Z,2.20
2022-10-16T12:33:42.435Z,2.22
2022-10-16T12:38:51.794Z,1.88
2022-10-16T12:43:53.351Z,1.80
2022-10-16T12:49:08.110Z,2.20
2022-10-16T12:54:17.830Z,2.15
2022-10-16T12:59:28.006Z,2.42
2022-10-16T13:04:40.589Z,2.13
2022-10-16T13:09:51.341Z,2.53
2022-10-16T13:15:02.914Z,1.55
2022-10-16T13:20:18.287Z,2.00
2022-10-16T13:25:27.731Z,2.13
2022-10-16T13:35:33.455Z,1.60
2022-10-16T13:40:35.948Z,1.40
2022-10-16T13:45:37.294Z,1.73
2022-10-16T13:50:38.676Z,2.30
2022-10-16T13:55:40.107Z,1.77
2022-10-16T14:00:54.720Z,1.70
2022-10-16T14:05:59.474Z,1.73
2022-10-16T14:11:02.129Z,1.83
2022-10-16T14:16:06.893Z,2.05
2022-10-16T14:21:12.670Z,1.90
2022-10-16T14:26:15.825Z,1.85
2022-10-16T14:31:27.827Z,2.28
2022-10-16T14:36:29.799Z,1.80
2022-10-16T14:41:32.291Z,2.10
2022-10-16T14:46:37.588Z,1.77
2022-10-16T14:51:41.982Z,1.70
2022-10-16T14:56:51.153Z,1.63
2022-10-16T15:01:52.847Z,2.00
2022-10-16T15:06:54.216Z,2.30
2022-10-16T15:11:55.554Z,1.92
2022-10-16T15:16:56.932Z,1.90
2022-10-16T15:21:58.377Z,2.00
2022-10-16T15:26:59.716Z,1.83
2022-10-16T15:32:01.082Z,1.95
2022-10-16T15:37:05.362Z,2.40
2022-10-16T15:42:07.510Z,1.80
2022-10-16T15:47:09.218Z,2.00
2022-10-16T15:52:10.584Z,2.03
2022-10-16T15:57:11.935Z,2.05
2022-10-16T16:02:13.434Z,2.40
2022-10-16T16:07:14.936Z,1.83
2022-10-16T16:12:16.494Z,2.20
2022-10-16T16:17:18.280Z,2.10
2022-10-16T16:22:19.706Z,2.25
2022-10-16T16:27:21.150Z,2.35
2022-10-16T16:32:22.680Z,2.33
2022-10-16T16:37:24.307Z,2.92
2022-10-16T16:42:26.902Z,2.72
2022-10-16T16:47:28.455Z,3.15
2022-10-16T16:52:30.188Z,3.45
2022-10-16T16:57:31.570Z,3.03
2022-10-16T17:02:33.715Z,4.25
2022-10-16T17:07:35.536Z,4.63
2022-10-16T17:12:36.926Z,4.40
2022-10-16T17:17:38.283Z,4.10
2022-10-16T17:22:40.297Z,4.70
2022-10-16T17:27:41.654Z,5.07
2022-10-16T17:32:43.070Z,4.80
2022-10-16T17:37:44.434Z,4.25
2022-10-16T17:42:45.935Z,4.55
2022-10-16T17:47:47.295Z,4.30
2022-10-16T17:52:48.943Z,5.10
2022-10-16T17:57:50.281Z,5.25
2022-10-16T18:02:51.763Z,7.10
2022-10-16T18:07:53.230Z,6.70
2022-10-16T18:12:54.582Z,6.55
2022-10-16T18:17:56.169Z,5.32
2022-10-16T18:22:57.623Z,4.68
2022-10-16T18:27:59.252Z,4.55
2022-10-16T18:33:00.607Z,5.40
2022-10-16T18:38:02.071Z,5.00
2022-10-16T18:43:03.457Z,6.85
2022-10-16T18:48:05.116Z,5.68
2022-10-16T18:53:06.518Z,4.20
2022-10-16T18:58:07.878Z,3.90
2022-10-16T19:03:09.220Z,4.20
2022-10-16T19:08:10.569Z,4.53
2022-10-16T19:13:11.916Z,3.92
2022-10-16T19:18:13.307Z,4.45
2022-10-16T19:23:16.668Z,4.43
2022-10-16T19:28:18.099Z,3.80
2022-10-16T19:33:19.462Z,4.13
2022-10-16T19:38:20.886Z,3.88
2022-10-16T19:43:22.944Z,3.95
2022-10-16T19:53:31.676Z,2.80
2022-10-16T19:58:33.051Z,2.75
2022-10-16T20:03:35.665Z,2.65
2022-10-16T20:08:38.102Z,2.80
2022-10-16T20:13:41.563Z,2.95
2022-10-16T20:18:43.924Z,3.05
2022-10-16T20:23:47.063Z,2.90
2022-10-16T20:28:48.628Z,2.35
2022-10-16T20:33:50.973Z,3.25
2022-10-16T20:38:52.862Z,2.95
2022-10-16T20:43:54.347Z,2.60
2022-10-16T20:49:02.331Z,2.53
2022-10-16T20:54:12.396Z,3.33
2022-10-16T20:59:13.960Z,2.90
2022-10-16T21:04:15.371Z,2.38
2022-10-16T21:09:16.768Z,2.65
2022-10-16T21:14:18.145Z,2.63
2022-10-16T21:19:19.569Z,2.83
2022-10-16T21:24:20.982Z,3.60
2022-10-16T21:29:22.694Z,3.00
2022-10-16T21:34:24.107Z,2.97
2022-10-16T21:39:25.936Z,2.85
2022-10-16T21:44:27.535Z,3.28
2022-10-16T21:49:28.977Z,3.00
2022-10-16T21:54:30.532Z,3.22
2022-10-16T21:59:31.936Z,3.70
2022-10-16T22:04:33.341Z,2.83
2022-10-16T22:09:36.385Z,3.00
2022-10-16T22:14:39.342Z,2.90
2022-10-16T22:19:40.701Z,3.35
2022-10-16T22:24:42.062Z,3.15
2022-10-16T22:29:43.412Z,3.08
2022-10-16T22:34:45.474Z,3.38
2022-10-16T22:39:46.966Z,3.90
2022-10-16T22:44:48.273Z,3.03
2022-10-16T22:49:49.613Z,3.20
2022-10-16T22:54:50.998Z,3.33
2022-10-16T22:59:53.200Z,2.97
2022-10-16T23:04:54.552Z,3.50
2022-10-16T23:09:55.976Z,2.65
2022-10-16T23:14:57.393Z,2.60
2022-10-16T23:19:58.789Z,2.60
2022-10-16T23:25:01.346Z,2.95
2022-10-16T23:30:02.897Z,3.35
2022-10-16T23:35:04.405Z,3.22
2022-10-16T23:40:06.058Z,2.88
2022-10-16T23:45:07.588Z,3.05
2022-10-16T23:50:09.497Z,2.78
2022-10-16T23:55:10.901Z,2.67
